AirNav   Bose Proflight Series 2 Wireless Aviation Headset
 
 1122 users online  

42TN Oliver Landing Airport
Paris, Tennessee, USA

GOING TO PARIS?


FAA INFORMATION EFFECTIVE 07 NOVEMBER 2019

Location

FAA Identifier: 42TN
Lat/Long: 36-24-43.0000N 088-15-56.0000W
36-24.716667N 088-15.933333W
36.4119444,-88.2655556
(estimated)
Elevation: 475 ft. / 145 m (estimated)
From city: 8 miles NE of PARIS, TN
Time zone: UTC -6 (UTC -5 during Daylight Saving Time)
Zip code: 38251

Airport Operations

Airport use: Private use. Permission required prior to landing
Activation date: 01/2005
Control tower: no
ARTCC: MEMPHIS CENTER
FSS: JACKSON FLIGHT SERVICE STATION
Attendance: UNATNDD
Wind indicator: yes
Segmented circle: no

Airport Communications

UNICOM: 122.7
WX AWOS-3 at PHT (7 nm SW): 118.825 (731-644-0451)
WX AWOS-3 at CEY (16 nm N): 119.975 (270-489-2424)

Nearby radio navigation aids

NDB name  Hdg/Dist  Freq  Var  ID
TRAINER037/12.141000ETIQ - .. --.-
HUNTINGDON029/21.721702WHZD .... --.. -..

Airport Services

Runway Information

Runway 10/28

Dimensions: 2800 x 100 ft. / 853 x 30 m
Surface: turf
RUNWAY 10  RUNWAY 28
Traffic pattern: rightleft

Airport Ownership and Management from official FAA records

Ownership: Privately-owned
Owner: GEORGE JOSEPH OLIVER
11271 SOUTHINGTON PLACE
JACKSONVILLE, FL 32257
Phone 904-945-3178
Manager: GEORGE JOSEPH OLIVER
11271 SOUTHINGTON PLACE
JACKSONVILLE, FL 32257
Phone 904-945-3178

Airport Operational Statistics

Aircraft based on the field: 2
Single engine airplanes: 2
    

Additional Remarks

FOR CD CTC MEMPHIS ARTCC AT 901-368-8453.

Instrument Procedures

There are no published instrument procedures at 42TN.

Some nearby airports with instrument procedures:

KPHT - Henry County Airport (7 nm SW)
KCEY - Kyle-Oakley Field Airport (16 nm N)
KHZD - Carroll County Airport (22 nm SW)
0M4 - Benton County Airport (25 nm S)
M25 - Mayfield Graves County Airport (26 nm NW)
 
Loc | Ops | Rwys | IFR | FBO | Links
Com | Nav | Svcs | Stats | Notes
Area around 42TN (Oliver Landing Airport)
 
Road maps at: MapQuest Bing Google
 
Aerial photo
No photo
 
Sectional chart

 
Airport distance calculator
Flying to Oliver Landing Airport? Find the distance to fly.

From to 42TN

Sunrise and sunset
Times for 22-Nov-2019
 Local
(UTC-6)
 Zulu
(UTC)
Morning civil twilight06:1112:11
Sunrise06:3912:39
Sunset16:4022:40
Evening civil twilight17:0823:08

Current date and time
Zulu (UTC)  22-Nov-2019 23:54:29
Local (UTC-6)  22-Nov-2019 17:54:29
 
METAR
KPHT 
7nm SW 
222335Z AUTO 05006G12KT 10SM OVC014 07/05 A3003 RMK A01
KCEY 
16nm N 
222335Z AUTO 05010KT 10SM BKN014 OVC060 05/05 A3003 RMK AO1
TAF
KHOP 
40nm NE 
222130Z 2221/2322 06010G15KT 9999 BKN015 QNH2985INS BECMG 2223/2224 04010G15KT 9999 OVC010 QNH3006INS BECMG 2302/2303 05006KT 9999 OVC005 QNH2997INS BECMG 2306/2307 07007KT 9000 -SHRA OVC005 QNH2987INS BECMG 2311/2312 VRB06KT 9000 -SHRA OVC005 QNH2985INS BECMG 2318/2319 30015G20KT 9000 -SHRA OVC005 QNH2985INS TX09/2300Z TN08/2221Z
KCKV 
43nm E 
222109Z 2221/2318 02009KT P6SM SCT010 BKN025 TEMPO 2221/2224 BKN010 FM230000 04008KT 5SM -SHRA BR OVC015 FM230900 05005KT 1SM -SHRA BR OVC004 FM231700 28008G14KT 4SM BR OVC003
KPAH 
46nm NW 
222230Z 2223/2318 04008KT P6SM BKN018 TEMPO 2223/2303 SCT018 OVC100 FM230300 05008KT P6SM VCSH OVC022 FM230800 05008KT P6SM -RA OVC013 FM231100 03007KT 5SM -RA BR OVC007
NOTAMs
Click for the latest NOTAMs
NOTAMs are issued by the DoD/FAA and will open in a separate window not controlled by AirNav.

 

 
 

Would you like to see your business listed on this page?

 If your business provides an interesting product or service to pilots, flight crews, aircraft, or users of the Oliver Landing Airport, you should consider listing it here.  To start the listing process, click on the button below
 
Add a business
 

Other Pages about Oliver Landing Airport

Update a link
 
Copyright © AirNav, LLC. All rights reserved. Privacy Policy  Contact